Disclaimer

Please do not use the information listed here in-flight or in-navigation, as they are not provided to us by the airports but are provided by volunteers, so they might be outdated.

Search


Regions


Airport information page

Radio informations:
MF - 118.1 MHz
QUEBEC RDO - 123.15 MHz
RDO - 118.1 MHz
MONTREAL CNTR - 135.55 MHz

Airport informations:
Latitude: 50° 13' 24.00" N
Longitude: 066° 15' 56.00" W
Elevation: 180 feet - 55 meters
Operating hours: N/A
Operating agency: Civil government, landing fees and diplomatic clearance may be required
Timezone: Second Sunday in March at 0200 to first Sunday in November at 0200 local time (Exception Arizona and that portion of Indiana in the Eastern Time Zone)
Fuel: Jet B, Wide cut turbine fuel, Without icing inhibitor.

Jet A1, without icing nhibitor.

100/130 MIL Spec, low lead, aviation gasoline (BLUE)

Runway information:
05/23 - 5900 x 200 feet< - >1798 x 61 meters
09/27 - 6552 x 150 feet< - >1997 x 46 meters
13/31 - 5771 x 200 feet< - >1759 x 61 meters

Recent METARs:
CYZV 181600Z 25009KT 30SM SCT033 BKN070 M06/M13 A3014 RMK SC4AC2 SLP212
CYZV 181700Z 27009KT 30SM BKN032 M06/M13 A3013 RMK SC6 SLP210
CYZV 181700Z 27009KT 30SM BKN032 M06/M13 A3013 RMK SC6 SLP210

Airport on the map: